sensor_id;sensor_type;location;lat;lon;timestamp;temperature;humidity
20366;DHT22;10341;49.894;8.822;2023-06-14T00:04:53;12.90;99.90
20366;DHT22;10341;49.894;8.822;2023-06-14T00:10:13;12.80;99.90
20366;DHT22;10341;49.894;8.822;2023-06-14T00:15:33;12.70;99.90
20366;DHT22;10341;49.894;8.822;2023-06-14T00:20:52;12.60;99.90
20366;DHT22;10341;49.894;8.822;2023-06-14T00:26:12;12.50;99.90
20366;DHT22;10341;49.894;8.822;2023-06-14T00:31:33;12.50;99.90
20366;DHT22;10341;49.894;8.822;2023-06-14T00:36:53;12.40;99.90
20366;DHT22;10341;49.894;8.822;2023-06-14T00:42:26;12.30;99.90
20366;DHT22;10341;49.894;8.822;2023-06-14T00:47:46;12.30;99.90
20366;DHT22;10341;49.894;8.822;2023-06-14T00:53:05;12.20;99.90
20366;DHT22;10341;49.894;8.822;2023-06-14T00:58:24;12.20;99.90
20366;DHT22;10341;49.894;8.822;2023-06-14T01:03:45;12.20;99.90
20366;DHT22;10341;49.894;8.822;2023-06-14T01:09:24;12.00;99.90
20366;DHT22;10341;49.894;8.822;2023-06-14T01:14:48;11.90;99.90
20366;DHT22;10341;49.894;8.822;2023-06-14T01:20:12;11.80;99.90
20366;DHT22;10341;49.894;8.822;2023-06-14T01:25:34;11.80;99.90
20366;DHT22;10341;49.894;8.822;2023-06-14T01:30:54;11.80;99.90
20366;DHT22;10341;49.894;8.822;2023-06-14T01:36:15;11.70;99.90
20366;DHT22;10341;49.894;8.822;2023-06-14T01:41:36;11.60;99.90
20366;DHT22;10341;49.894;8.822;2023-06-14T01:46:56;11.50;99.90
20366;DHT22;10341;49.894;8.822;2023-06-14T01:52:16;11.50;99.90
20366;DHT22;10341;49.894;8.822;2023-06-14T01:57:36;11.50;99.90
20366;DHT22;10341;49.894;8.822;2023-06-14T02:02:55;11.40;99.90
20366;DHT22;10341;49.894;8.822;2023-06-14T02:08:15;11.40;99.90
20366;DHT22;10341;49.894;8.822;2023-06-14T02:13:34;11.40;99.90
20366;DHT22;10341;49.894;8.822;2023-06-14T02:18:54;11.30;99.90
20366;DHT22;10341;49.894;8.822;2023-06-14T02:24:16;11.30;99.90
20366;DHT22;10341;49.894;8.822;2023-06-14T02:29:36;11.20;99.90
20366;DHT22;10341;49.894;8.822;2023-06-14T02:34:56;11.10;99.90
20366;DHT22;10341;49.894;8.822;2023-06-14T02:40:16;11.00;99.90
20366;DHT22;10341;49.894;8.822;2023-06-14T02:45:35;11.00;99.90
20366;DHT22;10341;49.894;8.822;2023-06-14T02:50:55;10.90;99.90
20366;DHT22;10341;49.894;8.822;2023-06-14T02:56:15;10.90;99.90
20366;DHT22;10341;49.894;8.822;2023-06-14T03:01:37;10.80;99.90
20366;DHT22;10341;49.894;8.822;2023-06-14T03:07:00;10.80;99.90
20366;DHT22;10341;49.894;8.822;2023-06-14T03:12:22;10.90;99.90
20366;DHT22;10341;49.894;8.822;2023-06-14T03:17:43;10.80;99.90
20366;DHT22;10341;49.894;8.822;2023-06-14T03:23:05;10.80;99.90
20366;DHT22;10341;49.894;8.822;2023-06-14T03:28:26;10.70;99.90
20366;DHT22;10341;49.894;8.822;2023-06-14T03:33:47;10.70;99.90
20366;DHT22;10341;49.894;8.822;2023-06-14T03:39:06;10.70;99.90
20366;DHT22;10341;49.894;8.822;2023-06-14T03:44:26;10.80;99.90
20366;DHT22;10341;49.894;8.822;2023-06-14T03:49:45;10.80;99.90
20366;DHT22;10341;49.894;8.822;2023-06-14T03:55:06;10.90;99.90
20366;DHT22;10341;49.894;8.822;2023-06-14T04:00:26;11.10;99.90
20366;DHT22;10341;49.894;8.822;2023-06-14T04:05:46;11.30;99.90
20366;DHT22;10341;49.894;8.822;2023-06-14T04:11:09;11.50;99.90
20366;DHT22;10341;49.894;8.822;2023-06-14T04:16:28;11.80;99.90
20366;DHT22;10341;49.894;8.822;2023-06-14T04:21:48;12.10;99.90
20366;DHT22;10341;49.894;8.822;2023-06-14T04:27:09;12.30;99.90
20366;DHT22;10341;49.894;8.822;2023-06-14T04:32:30;12.50;99.90
20366;DHT22;10341;49.894;8.822;2023-06-14T04:37:53;12.70;99.90
20366;DHT22;10341;49.894;8.822;2023-06-14T04:43:12;13.00;99.90
20366;DHT22;10341;49.894;8.822;2023-06-14T04:48:33;13.20;99.90
20366;DHT22;10341;49.894;8.822;2023-06-14T04:53:53;13.40;99.90
20366;DHT22;10341;49.894;8.822;2023-06-14T04:59:19;13.70;99.90
20366;DHT22;10341;49.894;8.822;2023-06-14T05:04:39;13.90;99.90
20366;DHT22;10341;49.894;8.822;2023-06-14T05:10:01;14.10;99.90
20366;DHT22;10341;49.894;8.822;2023-06-14T05:15:21;14.40;99.90
20366;DHT22;10341;49.894;8.822;2023-06-14T05:20:44;14.60;99.90
20366;DHT22;10341;49.894;8.822;2023-06-14T05:26:03;14.90;99.90
20366;DHT22;10341;49.894;8.822;2023-06-14T05:31:24;15.10;99.90
20366;DHT22;10341;49.894;8.822;2023-06-14T05:36:43;15.40;99.90
20366;DHT22;10341;49.894;8.822;2023-06-14T05:42:03;15.70;99.90
20366;DHT22;10341;49.894;8.822;2023-06-14T05:47:23;15.80;99.90
20366;DHT22;10341;49.894;8.822;2023-06-14T05:52:42;16.10;99.90
20366;DHT22;10341;49.894;8.822;2023-06-14T05:58:02;16.30;99.90
20366;DHT22;10341;49.894;8.822;2023-06-14T06:03:21;16.50;99.90
20366;DHT22;10341;49.894;8.822;2023-06-14T06:08:42;16.80;99.90
20366;DHT22;10341;49.894;8.822;2023-06-14T06:14:01;16.90;99.90
20366;DHT22;10341;49.894;8.822;2023-06-14T06:19:21;17.10;99.90
20366;DHT22;10341;49.894;8.822;2023-06-14T06:24:40;17.30;99.90
20366;DHT22;10341;49.894;8.822;2023-06-14T06:30:00;17.60;99.90
20366;DHT22;10341;49.894;8.822;2023-06-14T06:35:20;17.70;99.90
20366;DHT22;10341;49.894;8.822;2023-06-14T06:40:39;18.00;99.90
20366;DHT22;10341;49.894;8.822;2023-06-14T06:45:59;18.10;99.90
20366;DHT22;10341;49.894;8.822;2023-06-14T06:51:18;18.30;99.90
20366;DHT22;10341;49.894;8.822;2023-06-14T06:56:38;18.50;99.90
20366;DHT22;10341;49.894;8.822;2023-06-14T07:01:57;18.70;99.90
20366;DHT22;10341;49.894;8.822;2023-06-14T07:07:17;18.80;99.90
20366;DHT22;10341;49.894;8.822;2023-06-14T07:12:36;19.10;99.90
20366;DHT22;10341;49.894;8.822;2023-06-14T07:17:58;19.40;99.90
20366;DHT22;10341;49.894;8.822;2023-06-14T07:23:18;19.60;99.90
20366;DHT22;10341;49.894;8.822;2023-06-14T07:28:38;20.20;99.10
20366;DHT22;10341;49.894;8.822;2023-06-14T07:33:57;20.20;98.90
20366;DHT22;10341;49.894;8.822;2023-06-14T07:39:17;20.30;98.70
20366;DHT22;10341;49.894;8.822;2023-06-14T07:44:37;20.30;97.20
20366;DHT22;10341;49.894;8.822;2023-06-14T07:49:56;20.40;98.00
20366;DHT22;10341;49.894;8.822;2023-06-14T07:55:16;20.70;97.60
20366;DHT22;10341;49.894;8.822;2023-06-14T08:00:35;21.10;96.70
20366;DHT22;10341;49.894;8.822;2023-06-14T08:05:55;21.50;95.90
20366;DHT22;10341;49.894;8.822;2023-06-14T08:11:14;22.60;95.50
20366;DHT22;10341;49.894;8.822;2023-06-14T08:16:33;24.40;91.00
20366;DHT22;10341;49.894;8.822;2023-06-14T08:21:53;26.60;83.10
20366;DHT22;10341;49.894;8.822;2023-06-14T08:27:14;26.30;79.20
20366;DHT22;10341;49.894;8.822;2023-06-14T08:32:34;28.00;76.80
20366;DHT22;10341;49.894;8.822;2023-06-14T08:37:54;26.80;74.10
20366;DHT22;10341;49.894;8.822;2023-06-14T08:43:15;26.60;73.10
20366;DHT22;10341;49.894;8.822;2023-06-14T08:48:34;28.30;72.50
20366;DHT22;10341;49.894;8.822;2023-06-14T08:53:55;28.90;67.30
20366;DHT22;10341;49.894;8.822;2023-06-14T08:59:16;29.70;66.70
20366;DHT22;10341;49.894;8.822;2023-06-14T09:04:37;31.90;61.80
20366;DHT22;10341;49.894;8.822;2023-06-14T09:10:13;32.70;60.00
20366;DHT22;10341;49.894;8.822;2023-06-14T09:15:33;33.10;56.80
20366;DHT22;10341;49.894;8.822;2023-06-14T09:20:53;32.50;58.10
20366;DHT22;10341;49.894;8.822;2023-06-14T09:26:15;33.10;56.30
20366;DHT22;10341;49.894;8.822;2023-06-14T09:31:35;31.00;57.80
20366;DHT22;10341;49.894;8.822;2023-06-14T09:36:54;31.30;57.90
20366;DHT22;10341;49.894;8.822;2023-06-14T09:42:18;31.30;57.30
20366;DHT22;10341;49.894;8.822;2023-06-14T09:47:38;31.50;58.20
20366;DHT22;10341;49.894;8.822;2023-06-14T09:53:02;30.50;59.50
20366;DHT22;10341;49.894;8.822;2023-06-14T09:58:23;32.60;57.80
20366;DHT22;10341;49.894;8.822;2023-06-14T10:03:45;34.20;56.80
20366;DHT22;10341;49.894;8.822;2023-06-14T10:09:08;32.30;54.50
20366;DHT22;10341;49.894;8.822;2023-06-14T10:14:28;30.50;55.40
20366;DHT22;10341;49.894;8.822;2023-06-14T10:19:54;30.90;57.40
20366;DHT22;10341;49.894;8.822;2023-06-14T10:25:30;31.50;55.80
20366;DHT22;10341;49.894;8.822;2023-06-14T10:31:03;33.50;53.30
20366;DHT22;10341;49.894;8.822;2023-06-14T10:41:56;32.30;53.40
20366;DHT22;10341;49.894;8.822;2023-06-14T10:47:29;34.40;52.80
20366;DHT22;10341;49.894;8.822;2023-06-14T10:52:48;34.00;52.90
20366;DHT22;10341;49.894;8.822;2023-06-14T10:58:08;34.00;52.40
20366;DHT22;10341;49.894;8.822;2023-06-14T11:03:52;32.00;53.50
20366;DHT22;10341;49.894;8.822;2023-06-14T11:15:00;32.40;56.20
20366;DHT22;10341;49.894;8.822;2023-06-14T11:20:19;32.10;54.70
20366;DHT22;10341;49.894;8.822;2023-06-14T11:25:39;31.40;55.30
20366;DHT22;10341;49.894;8.822;2023-06-14T11:31:03;31.60;55.70
20366;DHT22;10341;49.894;8.822;2023-06-14T11:36:25;32.60;54.80
20366;DHT22;10341;49.894;8.822;2023-06-14T11:41:46;31.30;53.50
20366;DHT22;10341;49.894;8.822;2023-06-14T11:47:06;28.70;57.10
20366;DHT22;10341;49.894;8.822;2023-06-14T11:52:25;30.20;56.20
20366;DHT22;10341;49.894;8.822;2023-06-14T11:57:46;29.90;56.70
20366;DHT22;10341;49.894;8.822;2023-06-14T12:03:06;29.30;57.50
20366;DHT22;10341;49.894;8.822;2023-06-14T12:08:33;28.70;57.30
20366;DHT22;10341;49.894;8.822;2023-06-14T12:13:58;30.40;58.30
20366;DHT22;10341;49.894;8.822;2023-06-14T12:19:19;31.20;58.30
20366;DHT22;10341;49.894;8.822;2023-06-14T12:24:39;30.80;56.70
20366;DHT22;10341;49.894;8.822;2023-06-14T12:30:02;29.30;56.50
20366;DHT22;10341;49.894;8.822;2023-06-14T12:35:21;28.00;59.10
20366;DHT22;10341;49.894;8.822;2023-06-14T12:40:41;27.30;58.40
20366;DHT22;10341;49.894;8.822;2023-06-14T12:46:01;27.50;59.40
20366;DHT22;10341;49.894;8.822;2023-06-14T12:51:21;27.80;59.00
20366;DHT22;10341;49.894;8.822;2023-06-14T12:56:41;27.70;58.20
20366;DHT22;10341;49.894;8.822;2023-06-14T13:02:16;27.50;59.00
20366;DHT22;10341;49.894;8.822;2023-06-14T13:07:36;27.50;59.00
20366;DHT22;10341;49.894;8.822;2023-06-14T13:12:56;27.50;58.80
20366;DHT22;10341;49.894;8.822;2023-06-14T13:18:17;28.60;56.90
20366;DHT22;10341;49.894;8.822;2023-06-14T13:23:36;30.20;56.30
20366;DHT22;10341;49.894;8.822;2023-06-14T13:28:56;27.60;58.10
20366;DHT22;10341;49.894;8.822;2023-06-14T13:34:15;26.90;60.20
20366;DHT22;10341;49.894;8.822;2023-06-14T13:39:34;27.50;58.90
20366;DHT22;10341;49.894;8.822;2023-06-14T13:44:57;28.60;57.40
20366;DHT22;10341;49.894;8.822;2023-06-14T13:50:16;29.00;56.60
20366;DHT22;10341;49.894;8.822;2023-06-14T13:55:35;29.10;56.50
20366;DHT22;10341;49.894;8.822;2023-06-14T14:00:55;29.40;56.60
20366;DHT22;10341;49.894;8.822;2023-06-14T14:06:15;29.30;57.40
20366;DHT22;10341;49.894;8.822;2023-06-14T14:11:34;28.30;57.10
20366;DHT22;10341;49.894;8.822;2023-06-14T14:16:54;27.60;57.70
20366;DHT22;10341;49.894;8.822;2023-06-14T14:22:14;26.80;58.20
20366;DHT22;10341;49.894;8.822;2023-06-14T14:27:33;26.90;61.40
20366;DHT22;10341;49.894;8.822;2023-06-14T14:32:53;27.50;61.10
20366;DHT22;10341;49.894;8.822;2023-06-14T14:38:13;28.20;59.70
20366;DHT22;10341;49.894;8.822;2023-06-14T14:43:34;28.30;57.40
20366;DHT22;10341;49.894;8.822;2023-06-14T14:48:53;27.70;55.70
20366;DHT22;10341;49.894;8.822;2023-06-14T14:54:13;28.00;58.10
20366;DHT22;10341;49.894;8.822;2023-06-14T14:59:32;28.40;58.60
20366;DHT22;10341;49.894;8.822;2023-06-14T15:04:51;29.10;57.40
20366;DHT22;10341;49.894;8.822;2023-06-14T15:10:11;28.90;57.40
20366;DHT22;10341;49.894;8.822;2023-06-14T15:15:31;28.50;57.30
20366;DHT22;10341;49.894;8.822;2023-06-14T15:20:50;27.90;58.10
20366;DHT22;10341;49.894;8.822;2023-06-14T15:26:10;27.50;59.50
20366;DHT22;10341;49.894;8.822;2023-06-14T15:31:29;27.80;58.40
20366;DHT22;10341;49.894;8.822;2023-06-14T15:36:49;28.20;58.60
20366;DHT22;10341;49.894;8.822;2023-06-14T15:42:09;29.00;57.50
20366;DHT22;10341;49.894;8.822;2023-06-14T15:47:28;29.30;57.00
20366;DHT22;10341;49.894;8.822;2023-06-14T15:52:48;29.50;56.40
20366;DHT22;10341;49.894;8.822;2023-06-14T15:58:07;29.70;56.10
20366;DHT22;10341;49.894;8.822;2023-06-14T16:03:27;30.10;55.50
20366;DHT22;10341;49.894;8.822;2023-06-14T16:08:46;28.50;55.00
20366;DHT22;10341;49.894;8.822;2023-06-14T16:14:06;26.80;57.40
20366;DHT22;10341;49.894;8.822;2023-06-14T16:19:25;26.30;57.80
20366;DHT22;10341;49.894;8.822;2023-06-14T16:24:44;25.60;60.00
20366;DHT22;10341;49.894;8.822;2023-06-14T16:30:04;25.30;60.30
20366;DHT22;10341;49.894;8.822;2023-06-14T16:35:24;25.00;62.00
20366;DHT22;10341;49.894;8.822;2023-06-14T16:40:43;25.30;62.40
20366;DHT22;10341;49.894;8.822;2023-06-14T16:46:03;26.20;61.00
20366;DHT22;10341;49.894;8.822;2023-06-14T16:51:25;27.00;62.60
20366;DHT22;10341;49.894;8.822;2023-06-14T16:56:45;27.30;61.20
20366;DHT22;10341;49.894;8.822;2023-06-14T17:02:04;27.50;59.10
20366;DHT22;10341;49.894;8.822;2023-06-14T17:07:24;27.50;59.80
20366;DHT22;10341;49.894;8.822;2023-06-14T17:12:43;26.80;61.00
20366;DHT22;10341;49.894;8.822;2023-06-14T17:18:03;26.30;61.70
20366;DHT22;10341;49.894;8.822;2023-06-14T17:23:23;26.50;62.70
20366;DHT22;10341;49.894;8.822;2023-06-14T17:28:42;26.80;61.80
20366;DHT22;10341;49.894;8.822;2023-06-14T17:34:01;26.70;62.60
20366;DHT22;10341;49.894;8.822;2023-06-14T17:39:21;26.50;62.60
20366;DHT22;10341;49.894;8.822;2023-06-14T17:44:41;26.20;62.60
20366;DHT22;10341;49.894;8.822;2023-06-14T17:50:01;25.90;62.20
20366;DHT22;10341;49.894;8.822;2023-06-14T17:55:22;25.50;62.80
20366;DHT22;10341;49.894;8.822;2023-06-14T18:00:41;25.40;63.70
20366;DHT22;10341;49.894;8.822;2023-06-14T18:06:00;25.10;63.20
20366;DHT22;10341;49.894;8.822;2023-06-14T18:11:20;24.90;64.20
20366;DHT22;10341;49.894;8.822;2023-06-14T18:16:39;24.60;65.40
20366;DHT22;10341;49.894;8.822;2023-06-14T18:21:59;24.40;67.10
20366;DHT22;10341;49.894;8.822;2023-06-14T18:27:18;24.00;67.60
20366;DHT22;10341;49.894;8.822;2023-06-14T18:32:38;23.60;69.40
20366;DHT22;10341;49.894;8.822;2023-06-14T18:37:59;23.20;71.00
20366;DHT22;10341;49.894;8.822;2023-06-14T18:43:19;22.80;72.20
20366;DHT22;10341;49.894;8.822;2023-06-14T18:48:38;22.40;72.60
20366;DHT22;10341;49.894;8.822;2023-06-14T18:53:57;22.20;72.70
20366;DHT22;10341;49.894;8.822;2023-06-14T18:59:20;21.90;74.00
20366;DHT22;10341;49.894;8.822;2023-06-14T19:04:40;21.80;74.80
20366;DHT22;10341;49.894;8.822;2023-06-14T19:10:00;21.50;75.30
20366;DHT22;10341;49.894;8.822;2023-06-14T19:15:19;21.30;75.40
20366;DHT22;10341;49.894;8.822;2023-06-14T19:20:39;21.20;75.70
20366;DHT22;10341;49.894;8.822;2023-06-14T19:25:58;21.00;76.70
20366;DHT22;10341;49.894;8.822;2023-06-14T19:31:18;20.80;76.40
20366;DHT22;10341;49.894;8.822;2023-06-14T19:36:37;20.60;77.30
20366;DHT22;10341;49.894;8.822;2023-06-14T19:41:57;20.50;77.70
20366;DHT22;10341;49.894;8.822;2023-06-14T19:47:16;20.30;79.20
20366;DHT22;10341;49.894;8.822;2023-06-14T19:52:35;20.00;80.40
20366;DHT22;10341;49.894;8.822;2023-06-14T19:57:54;19.90;80.80
20366;DHT22;10341;49.894;8.822;2023-06-14T20:03:14;19.70;82.10
20366;DHT22;10341;49.894;8.822;2023-06-14T20:08:33;19.60;83.10
20366;DHT22;10341;49.894;8.822;2023-06-14T20:13:53;19.40;84.00
20366;DHT22;10341;49.894;8.822;2023-06-14T20:19:12;19.20;85.60
20366;DHT22;10341;49.894;8.822;2023-06-14T20:24:31;19.00;86.90
20366;DHT22;10341;49.894;8.822;2023-06-14T20:29:50;18.80;88.60
20366;DHT22;10341;49.894;8.822;2023-06-14T20:35:11;18.60;90.10
20366;DHT22;10341;49.894;8.822;2023-06-14T20:40:31;18.40;91.10
20366;DHT22;10341;49.894;8.822;2023-06-14T20:45:51;18.30;91.60
20366;DHT22;10341;49.894;8.822;2023-06-14T20:51:14;18.20;92.10
20366;DHT22;10341;49.894;8.822;2023-06-14T20:56:33;18.00;93.10
20366;DHT22;10341;49.894;8.822;2023-06-14T21:01:53;17.90;94.00
20366;DHT22;10341;49.894;8.822;2023-06-14T21:07:12;17.70;95.00
20366;DHT22;10341;49.894;8.822;2023-06-14T21:12:32;17.60;95.30
20366;DHT22;10341;49.894;8.822;2023-06-14T21:17:54;17.50;96.10
20366;DHT22;10341;49.894;8.822;2023-06-14T21:23:14;17.30;97.00
20366;DHT22;10341;49.894;8.822;2023-06-14T21:28:33;17.20;97.80
20366;DHT22;10341;49.894;8.822;2023-06-14T21:33:52;17.10;99.00
20366;DHT22;10341;49.894;8.822;2023-06-14T21:39:11;17.00;99.80
20366;DHT22;10341;49.894;8.822;2023-06-14T21:44:30;16.80;99.90
20366;DHT22;10341;49.894;8.822;2023-06-14T21:49:50;16.70;99.90
20366;DHT22;10341;49.894;8.822;2023-06-14T21:55:09;16.50;99.90
20366;DHT22;10341;49.894;8.822;2023-06-14T22:00:28;16.30;99.90
20366;DHT22;10341;49.894;8.822;2023-06-14T22:05:47;16.10;99.90
20366;DHT22;10341;49.894;8.822;2023-06-14T22:11:07;15.90;99.90
20366;DHT22;10341;49.894;8.822;2023-06-14T22:16:27;15.70;99.90
20366;DHT22;10341;49.894;8.822;2023-06-14T22:21:46;15.50;99.90
20366;DHT22;10341;49.894;8.822;2023-06-14T22:27:09;15.30;99.90
20366;DHT22;10341;49.894;8.822;2023-06-14T22:32:28;15.10;99.90
20366;DHT22;10341;49.894;8.822;2023-06-14T22:37:48;14.90;99.90
20366;DHT22;10341;49.894;8.822;2023-06-14T22:43:08;14.80;99.90
20366;DHT22;10341;49.894;8.822;2023-06-14T22:48:27;14.60;99.90
20366;DHT22;10341;49.894;8.822;2023-06-14T22:53:47;14.50;99.90
20366;DHT22;10341;49.894;8.822;2023-06-14T22:59:07;14.40;99.90
20366;DHT22;10341;49.894;8.822;2023-06-14T23:04:26;14.30;99.90
20366;DHT22;10341;49.894;8.822;2023-06-14T23:09:46;14.30;99.90
20366;DHT22;10341;49.894;8.822;2023-06-14T23:15:06;14.30;99.90
20366;DHT22;10341;49.894;8.822;2023-06-14T23:20:27;14.30;99.90
20366;DHT22;10341;49.894;8.822;2023-06-14T23:25:48;14.30;99.90
20366;DHT22;10341;49.894;8.822;2023-06-14T23:31:08;14.20;99.90
20366;DHT22;10341;49.894;8.822;2023-06-14T23:36:28;14.00;99.90
20366;DHT22;10341;49.894;8.822;2023-06-14T23:41:49;13.90;99.90
20366;DHT22;10341;49.894;8.822;2023-06-14T23:47:11;13.70;99.90
20366;DHT22;10341;49.894;8.822;2023-06-14T23:52:30;13.60;99.90
20366;DHT22;10341;49.894;8.822;2023-06-14T23:57:50;13.50;99.90
